Time;durP1;ratioP1;P1;durP2;ratioP2;P2;SDS_P1;SDS_P2;PMS_P1;PMS_P2;Temp;Humidity;BMP_temperature;BMP_pressure;BME280_temperature;BME280_humidity;BME280_pressure;Samples;Min_cycle;Max_cycle;Signal;HPM_P1;HPM_P2
2022/03/14 00:01:55;;;;;;;15.57;10.25;;;9.40;70.80;;;;;;5070617;28;20056;-69
2022/03/14 00:04:23;;;;;;;15.55;9.68;;;9.30;70.90;;;;;;5071041;28;20056;-69
2022/03/14 00:06:50;;;;;;;16.65;10.63;;;9.30;71.10;;;;;;5071263;28;20129;-68
2022/03/14 00:09:17;;;;;;;16.55;9.32;;;9.30;71.50;;;;;;5070473;28;20044;-69
2022/03/14 00:11:44;;;;;;;15.00;9.10;;;9.20;72.00;;;;;;5072155;28;20044;-69
2022/03/14 00:14:11;;;;;;;15.55;9.95;;;9.20;72.00;;;;;;5071696;28;20102;-68
2022/03/14 00:16:40;;;;;;;15.20;10.55;;;9.20;72.30;;;;;;5071377;28;20506;-68
2022/03/14 00:19:07;;;;;;;13.02;9.20;;;9.20;72.40;;;;;;5071508;28;20056;-68
2022/03/14 00:21:39;;;;;;;14.80;9.60;;;9.10;72.60;;;;;;5070927;28;20529;-68
2022/03/14 00:24:08;;;;;;;15.55;9.77;;;9.10;73.20;;;;;;5070687;28;20052;-68
2022/03/14 00:26:35;;;;;;;15.30;9.40;;;9.10;73.40;;;;;;5070879;28;20052;-68
2022/03/14 00:29:04;;;;;;;12.77;9.07;;;9.10;73.50;;;;;;5070325;28;20551;-68
2022/03/14 00:31:30;;;;;;;14.50;9.70;;;9.10;74.00;;;;;;5071195;28;20052;-69
2022/03/14 00:33:58;;;;;;;15.75;10.40;;;9.10;74.50;;;;;;5074550;28;20048;-68
2022/03/14 00:36:25;;;;;;;15.40;10.20;;;9.10;74.90;;;;;;5073836;28;20049;-69
2022/03/14 00:38:55;;;;;;;14.38;9.88;;;9.10;74.70;;;;;;5075710;28;20053;-69
2022/03/14 00:41:22;;;;;;;14.55;9.80;;;9.10;75.60;;;;;;5074330;28;20101;-68
2022/03/14 00:43:49;;;;;;;14.43;9.75;;;9.10;75.30;;;;;;5073665;28;20102;-68
2022/03/14 00:46:17;;;;;;;19.27;10.55;;;9.00;76.10;;;;;;5074418;28;20090;-68
2022/03/14 00:48:45;;;;;;;15.73;10.10;;;9.00;75.90;;;;;;5075573;28;20109;-69
2022/03/14 00:51:12;;;;;;;14.63;9.55;;;9.00;76.40;;;;;;5073490;28;20052;-68
2022/03/14 00:53:39;;;;;;;12.80;9.75;;;8.90;76.80;;;;;;5074067;28;20480;-71
2022/03/14 00:56:07;;;;;;;14.07;9.80;;;9.00;77.00;;;;;;5075413;28;20083;-68
2022/03/14 00:58:34;;;;;;;15.68;9.65;;;8.90;77.00;;;;;;5073053;28;20052;-67
2022/03/14 01:01:02;;;;;;;14.40;10.00;;;9.00;78.00;;;;;;5074126;28;20503;-67
2022/03/14 01:03:29;;;;;;;15.50;9.88;;;9.00;78.30;;;;;;5073822;28;20045;-69
2022/03/14 01:05:56;;;;;;;14.10;8.48;;;9.00;78.80;;;;;;5074847;28;20044;-69
2022/03/14 01:08:23;;;;;;;14.25;9.85;;;9.00;78.80;;;;;;5075029;28;20044;-69
2022/03/14 01:10:50;;;;;;;14.38;9.63;;;9.00;79.20;;;;;;5074913;28;20048;-68
2022/03/14 01:13:19;;;;;;;15.05;9.95;;;9.00;79.80;;;;;;5073637;28;20049;-68
2022/03/14 01:15:46;;;;;;;13.40;9.20;;;9.00;80.20;;;;;;5073543;28;20048;-68
2022/03/14 01:18:14;;;;;;;13.90;9.43;;;9.00;80.70;;;;;;5074055;28;20055;-68
2022/03/14 01:20:41;;;;;;;14.38;9.68;;;9.10;81.20;;;;;;5074730;28;20059;-68
2022/03/14 01:23:08;;;;;;;14.05;9.75;;;9.10;81.40;;;;;;5073636;28;20044;-68
2022/03/14 01:25:36;;;;;;;15.95;9.73;;;9.10;82.20;;;;;;5072915;28;20101;-68
2022/03/14 01:28:04;;;;;;;13.98;9.45;;;9.10;83.00;;;;;;5073333;28;20059;-68
2022/03/14 01:30:32;;;;;;;15.05;10.25;;;9.20;83.10;;;;;;5073546;28;20097;-68
2022/03/14 01:33:00;;;;;;;13.38;8.88;;;9.20;83.50;;;;;;5073939;28;20550;-68
2022/03/14 01:35:27;;;;;;;17.15;9.98;;;9.30;83.80;;;;;;5073467;28;20058;-68
2022/03/14 01:37:55;;;;;;;14.63;8.70;;;9.20;83.70;;;;;;5073323;28;20052;-68
2022/03/14 01:40:23;;;;;;;16.20;9.35;;;9.30;84.30;;;;;;5072749;28;20053;-68
2022/03/14 01:42:50;;;;;;;18.95;9.80;;;9.30;84.20;;;;;;5072530;28;20049;-67
2022/03/14 01:45:17;;;;;;;14.57;9.65;;;9.30;84.40;;;;;;5072643;28;20095;-68
2022/03/14 01:47:47;;;;;;;13.98;9.85;;;9.30;85.30;;;;;;5072419;28;20139;-67
2022/03/14 01:50:15;;;;;;;12.70;9.03;;;9.30;85.20;;;;;;5053342;28;20060;-67
2022/03/14 01:52:42;;;;;;;12.45;8.90;;;9.30;85.40;;;;;;5052977;28;20288;-68
2022/03/14 01:55:10;;;;;;;13.52;9.40;;;9.30;85.60;;;;;;5052436;28;20053;-68
2022/03/14 01:57:38;;;;;;;12.82;8.77;;;9.30;85.90;;;;;;5052639;28;20049;-67
2022/03/14 02:00:08;;;;;;;13.52;8.75;;;9.30;86.60;;;;;;5053135;28;20049;-67
2022/03/14 02:02:35;;;;;;;15.60;9.07;;;9.30;86.60;;;;;;5053506;28;20048;-68
2022/03/14 02:05:03;;;;;;;12.25;8.50;;;9.30;86.70;;;;;;5072569;28;20053;-67
2022/03/14 02:07:32;;;;;;;13.73;9.30;;;9.30;87.20;;;;;;5073130;28;20496;-70
2022/03/14 02:09:59;;;;;;;13.68;9.57;;;9.30;87.50;;;;;;5072937;28;20389;-68
2022/03/14 02:12:26;;;;;;;12.13;9.52;;;9.30;87.70;;;;;;5072680;28;20052;-69
2022/03/14 02:14:53;;;;;;;13.70;8.88;;;9.20;88.50;;;;;;5072641;28;20045;-68
2022/03/14 02:17:20;;;;;;;14.30;9.57;;;9.20;89.10;;;;;;5072534;28;20052;-68
2022/03/14 02:19:47;;;;;;;14.65;10.13;;;9.10;90.20;;;;;;5072300;28;20495;-68
2022/03/14 02:22:16;;;;;;;15.02;8.75;;;9.10;90.30;;;;;;5071700;28;20056;-67
2022/03/14 02:24:44;;;;;;;12.43;8.93;;;9.10;90.30;;;;;;5072324;28;20056;-67
2022/03/14 02:27:11;;;;;;;11.82;8.50;;;9.10;90.40;;;;;;5072335;28;20516;-65
2022/03/14 02:29:39;;;;;;;16.00;9.27;;;9.10;90.50;;;;;;5072371;28;20499;-66
2022/03/14 02:32:07;;;;;;;11.88;8.82;;;9.10;90.60;;;;;;5072206;28;20384;-67
2022/03/14 02:34:34;;;;;;;15.98;9.50;;;9.10;90.60;;;;;;5072036;28;20075;-67
2022/03/14 02:37:02;;;;;;;14.45;8.85;;;9.20;90.90;;;;;;5072805;28;20052;-67
2022/03/14 02:39:32;;;;;;;13.38;9.18;;;9.20;90.90;;;;;;5071506;28;20523;-67
2022/03/14 02:41:59;;;;;;;11.05;8.23;;;9.20;90.90;;;;;;5071829;28;20055;-67
2022/03/14 02:44:26;;;;;;;13.30;9.02;;;9.20;90.90;;;;;;5071680;28;20115;-67
2022/03/14 02:46:53;;;;;;;12.60;8.80;;;9.30;91.20;;;;;;5072099;28;20060;-67
2022/03/14 02:49:20;;;;;;;12.00;8.30;;;9.30;91.40;;;;;;5071863;28;20063;-67
2022/03/14 02:51:48;;;;;;;11.48;8.60;;;9.30;91.60;;;;;;5071577;28;20060;-67
2022/03/14 02:54:15;;;;;;;12.68;8.50;;;9.30;91.80;;;;;;5071640;28;20044;-67
2022/03/14 02:56:43;;;;;;;11.07;8.02;;;9.30;92.10;;;;;;5071269;28;20408;-67
2022/03/14 02:59:11;;;;;;;12.25;8.23;;;9.30;92.10;;;;;;5073306;28;20408;-68
2022/03/14 03:01:39;;;;;;;11.70;8.65;;;9.30;92.30;;;;;;5072895;28;20128;-67
2022/03/14 03:04:06;;;;;;;12.00;8.30;;;9.30;92.50;;;;;;5071906;28;20053;-68
2022/03/14 03:06:33;;;;;;;10.55;8.20;;;9.30;92.50;;;;;;5072115;28;20434;-68
2022/03/14 03:09:03;;;;;;;16.52;7.97;;;9.30;92.60;;;;;;5071586;28;20049;-68
2022/03/14 03:11:30;;;;;;;10.82;8.25;;;9.30;92.80;;;;;;5071433;28;20118;-69
2022/03/14 03:13:59;;;;;;;11.68;7.90;;;9.30;92.90;;;;;;5072875;28;20051;-69
2022/03/14 03:16:26;;;;;;;11.25;7.57;;;9.30;93.00;;;;;;5071479;28;20084;-69
2022/03/14 03:18:54;;;;;;;11.38;7.85;;;9.30;93.20;;;;;;5070841;28;20055;-68
2022/03/14 03:21:21;;;;;;;9.63;7.38;;;9.30;93.30;;;;;;5071515;28;20049;-67
2022/03/14 03:23:47;;;;;;;10.75;7.88;;;9.30;93.40;;;;;;5071286;28;20044;-68
2022/03/14 03:26:15;;;;;;;12.95;8.10;;;9.30;93.60;;;;;;5070801;28;20577;-68
2022/03/14 03:28:42;;;;;;;10.20;7.30;;;9.30;93.60;;;;;;5071580;28;20057;-68
2022/03/14 03:31:13;;;;;;;10.75;7.82;;;9.30;93.80;;;;;;5071682;28;20117;-68
2022/03/14 03:33:40;;;;;;;12.00;7.40;;;9.40;94.00;;;;;;5070967;28;20076;-68
2022/03/14 03:36:08;;;;;;;11.60;7.28;;;9.40;94.00;;;;;;5072653;28;20098;-68
2022/03/14 03:38:36;;;;;;;11.25;7.65;;;9.40;94.30;;;;;;5070901;28;20441;-68
2022/03/14 03:41:03;;;;;;;10.88;7.25;;;9.40;94.40;;;;;;5070677;28;20048;-68
2022/03/14 03:43:30;;;;;;;10.35;6.88;;;9.40;94.60;;;;;;5072487;28;20059;-68
2022/03/14 03:45:57;;;;;;;14.00;6.93;;;9.40;94.70;;;;;;5070617;28;20052;-68
2022/03/14 03:48:25;;;;;;;10.20;7.13;;;9.40;94.70;;;;;;5070997;28;20098;-68
2022/03/14 03:50:52;;;;;;;11.02;7.28;;;9.40;95.00;;;;;;5072075;28;20106;-69
2022/03/14 03:53:19;;;;;;;11.55;7.32;;;9.40;95.00;;;;;;5070352;28;20051;-68
2022/03/14 03:55:46;;;;;;;10.45;7.18;;;9.40;95.40;;;;;;5072767;28;20052;-68
2022/03/14 03:58:13;;;;;;;11.05;7.10;;;9.30;95.60;;;;;;5071083;28;20052;-68
2022/03/14 04:00:41;;;;;;;12.80;7.55;;;9.30;95.90;;;;;;5070682;28;20454;-67
2022/03/14 04:03:08;;;;;;;8.40;6.60;;;9.30;96.20;;;;;;5070923;28;20403;-67
2022/03/14 04:05:39;;;;;;;8.00;5.72;;;9.30;96.20;;;;;;5071127;28;20521;-68
2022/03/14 04:08:10;;;;;;;9.43;6.35;;;9.30;96.40;;;;;;5074262;28;20558;-68
2022/03/14 04:10:37;;;;;;;8.05;5.97;;;9.40;96.80;;;;;;5074857;28;20049;-68
2022/03/14 04:13:06;;;;;;;8.63;5.72;;;9.40;97.00;;;;;;5074742;28;20102;-68
2022/03/14 04:15:42;;;;;;;9.18;6.00;;;9.40;96.90;;;;;;5073595;28;20440;-68
2022/03/14 04:18:10;;;;;;;8.52;5.70;;;9.40;97.10;;;;;;5074546;28;20058;-68
2022/03/14 04:20:41;;;;;;;8.93;6.10;;;9.40;97.70;;;;;;5074399;28;20102;-68
2022/03/14 04:23:08;;;;;;;7.65;5.88;;;9.40;97.70;;;;;;5074035;28;20140;-69
2022/03/14 04:25:35;;;;;;;7.18;5.68;;;9.50;97.90;;;;;;5074788;28;20506;-68
2022/03/14 04:28:01;;;;;;;8.20;5.47;;;9.40;97.90;;;;;;5075157;28;20044;-69
2022/03/14 04:30:28;;;;;;;6.63;4.75;;;9.40;98.90;;;;;;5074293;28;20048;-69
2022/03/14 04:32:55;;;;;;;6.53;4.97;;;9.40;98.50;;;;;;5074555;28;20064;-69
2022/03/14 04:35:22;;;;;;;8.02;4.72;;;9.40;98.50;;;;;;5073789;28;20045;-70
2022/03/14 04:37:50;;;;;;;7.88;4.43;;;9.50;98.80;;;;;;5075487;28;20473;-68
2022/03/14 04:40:17;;;;;;;6.32;4.65;;;9.50;98.80;;;;;;5075335;28;20454;-68
2022/03/14 04:42:44;;;;;;;6.72;4.50;;;9.50;99.40;;;;;;5074789;28;20106;-68
2022/03/14 04:45:11;;;;;;;7.15;4.47;;;9.50;99.80;;;;;;5075021;28;21033;-68
2022/03/14 04:47:38;;;;;;;5.40;4.00;;;9.50;99.90;;;;;;5074182;28;20106;-68
2022/03/14 04:50:06;;;;;;;6.75;4.32;;;9.50;99.90;;;;;;5073597;28;20052;-67
2022/03/14 04:52:33;;;;;;;10.27;4.57;;;9.50;99.90;;;;;;5075585;28;20447;-68
2022/03/14 04:55:02;;;;;;;5.88;4.15;;;9.40;99.90;;;;;;5074061;28;20048;-67
2022/03/14 04:57:29;;;;;;;7.28;3.83;;;9.40;99.90;;;;;;5073646;28;20049;-68
2022/03/14 04:59:56;;;;;;;5.80;4.63;;;9.50;99.90;;;;;;5074006;28;20118;-68
2022/03/14 05:02:24;;;;;;;5.93;4.20;;;9.40;99.90;;;;;;5074830;28;20439;-68
2022/03/14 05:04:51;;;;;;;5.50;3.95;;;9.40;99.90;;;;;;5073171;28;20048;-67
2022/03/14 05:07:18;;;;;;;6.55;4.18;;;9.40;99.90;;;;;;5073969;28;20101;-68
2022/03/14 05:09:44;;;;;;;5.70;4.32;;;9.40;99.90;;;;;;5073203;28;20044;-68
2022/03/14 05:12:13;;;;;;;7.45;3.92;;;9.40;99.90;;;;;;5073101;28;20177;-68
2022/03/14 05:14:40;;;;;;;5.90;4.25;;;9.40;99.90;;;;;;5073456;28;20045;-67
2022/03/14 05:17:07;;;;;;;6.10;3.88;;;9.40;99.90;;;;;;5073882;28;20106;-67
2022/03/14 05:19:35;;;;;;;6.15;3.85;;;9.40;99.90;;;;;;5072460;28;20484;-68
2022/03/14 05:22:02;;;;;;;5.28;3.50;;;9.40;99.90;;;;;;5073623;28;20492;-68
2022/03/14 05:24:29;;;;;;;5.35;3.97;;;9.40;99.90;;;;;;5073724;28;20044;-68
2022/03/14 05:26:58;;;;;;;4.93;3.50;;;9.40;99.90;;;;;;5073209;28;20484;-68
2022/03/14 05:29:26;;;;;;;5.28;3.40;;;9.40;99.90;;;;;;5074599;28;20144;-68
2022/03/14 05:31:53;;;;;;;5.18;3.65;;;9.40;99.90;;;;;;5072592;28;20101;-67
2022/03/14 05:34:20;;;;;;;5.43;3.42;;;9.40;99.90;;;;;;5073074;28;20106;-68
2022/03/14 05:36:47;;;;;;;5.22;3.50;;;9.40;99.90;;;;;;5073423;28;20056;-68
2022/03/14 05:39:14;;;;;;;4.55;3.25;;;9.50;99.90;;;;;;5073037;28;20049;-68
2022/03/14 05:41:41;;;;;;;4.82;3.40;;;9.50;99.90;;;;;;5072870;28;20060;-67
2022/03/14 05:44:08;;;;;;;5.55;3.50;;;9.50;99.90;;;;;;5072870;28;20053;-68
2022/03/14 05:46:36;;;;;;;4.47;3.00;;;9.50;99.90;;;;;;5073571;28;20092;-68
2022/03/14 05:49:04;;;;;;;5.18;3.58;;;9.50;99.90;;;;;;5072960;28;20056;-68
2022/03/14 05:51:34;;;;;;;7.32;3.47;;;9.50;99.90;;;;;;5073004;28;20056;-68
2022/03/14 05:54:01;;;;;;;5.70;3.80;;;9.50;99.90;;;;;;5073273;28;20088;-67
2022/03/14 05:56:28;;;;;;;4.28;3.35;;;9.60;99.90;;;;;;5056525;28;20384;-68
2022/03/14 05:58:55;;;;;;;4.30;3.20;;;9.50;99.90;;;;;;5060536;28;20110;-67
2022/03/14 06:01:22;;;;;;;4.93;3.58;;;9.50;99.90;;;;;;5059526;28;20139;-66
2022/03/14 06:03:52;;;;;;;5.40;3.60;;;9.50;99.90;;;;;;5063161;28;20057;-68
2022/03/14 06:06:19;;;;;;;5.53;2.83;;;9.50;99.90;;;;;;5063530;28;20040;-68
2022/03/14 06:08:46;;;;;;;4.97;3.50;;;9.60;99.90;;;;;;5063756;28;20080;-68
2022/03/14 06:11:13;;;;;;;4.40;3.13;;;9.60;99.90;;;;;;5065198;28;20044;-68
2022/03/14 06:13:40;;;;;;;6.28;4.15;;;9.60;99.90;;;;;;5068879;28;20048;-68
2022/03/14 06:16:07;;;;;;;4.60;3.50;;;9.50;99.90;;;;;;5066265;28;20054;-68
2022/03/14 06:18:34;;;;;;;5.72;4.15;;;9.40;99.90;;;;;;5063775;28;20484;-67
2022/03/14 06:21:02;;;;;;;6.20;3.63;;;9.40;99.90;;;;;;5068482;28;20110;-68
2022/03/14 06:23:29;;;;;;;5.93;3.83;;;9.50;99.90;;;;;;5064398;28;20053;-67
2022/03/14 06:25:57;;;;;;;4.55;3.25;;;9.40;99.90;;;;;;5065438;28;20051;-67
2022/03/14 06:28:24;;;;;;;4.95;3.70;;;9.40;99.90;;;;;;5066648;28;20048;-67
2022/03/14 06:30:51;;;;;;;5.00;3.60;;;9.40;99.90;;;;;;5065128;28;20501;-68
2022/03/14 06:33:18;;;;;;;4.20;3.15;;;9.40;99.90;;;;;;5068456;28;20105;-68
2022/03/14 06:35:46;;;;;;;4.82;3.50;;;9.40;99.90;;;;;;5063927;28;20052;-68
2022/03/14 06:38:14;;;;;;;4.38;3.17;;;9.40;99.90;;;;;;5063695;28;20484;-67
2022/03/14 06:40:41;;;;;;;5.00;3.50;;;9.40;99.90;;;;;;5068013;28;20054;-68
2022/03/14 06:43:09;;;;;;;4.68;3.40;;;9.30;99.90;;;;;;5064481;28;20062;-67
2022/03/14 06:45:39;;;;;;;6.10;3.58;;;9.40;99.90;;;;;;5066770;28;20041;-69
2022/03/14 06:48:07;;;;;;;5.20;3.33;;;9.30;99.90;;;;;;5064469;28;20044;-68
2022/03/14 06:50:35;;;;;;;7.82;3.90;;;9.30;99.90;;;;;;5063107;28;20377;-69
2022/03/14 06:53:02;;;;;;;5.45;4.28;;;9.30;99.90;;;;;;5063268;28;20082;-68
2022/03/14 06:55:31;;;;;;;4.97;3.75;;;9.40;99.90;;;;;;5068546;28;20453;-69
2022/03/14 06:57:58;;;;;;;4.95;3.65;;;9.40;99.90;;;;;;5064471;28;20386;-69
2022/03/14 07:00:26;;;;;;;5.10;3.72;;;9.40;99.90;;;;;;5065120;28;20048;-68
2022/03/14 07:02:53;;;;;;;4.88;3.72;;;9.40;99.90;;;;;;5066866;28;20079;-68
2022/03/14 07:05:23;;;;;;;5.90;3.40;;;9.40;99.90;;;;;;5062704;28;20469;-68
2022/03/14 07:07:50;;;;;;;5.28;3.50;;;9.40;99.90;;;;;;5060724;28;20049;-68
2022/03/14 07:10:18;;;;;;;5.03;3.63;;;9.40;99.90;;;;;;5070704;28;20098;-68
2022/03/14 07:12:49;;;;;;;4.80;3.47;;;9.40;99.90;;;;;;5065571;28;20454;-68
2022/03/14 07:15:18;;;;;;;5.57;3.65;;;9.40;99.90;;;;;;5064434;28;20090;-69
2022/03/14 07:17:45;;;;;;;4.95;3.40;;;9.40;99.90;;;;;;5065647;28;20084;-69
2022/03/14 07:20:13;;;;;;;4.95;3.80;;;9.40;99.90;;;;;;5061509;28;20063;-69
2022/03/14 07:22:54;;;;;;;6.30;3.92;;;9.40;99.90;;;;;;5061640;28;20056;-69
2022/03/14 07:25:25;;;;;;;5.43;3.95;;;9.40;99.90;;;;;;5069305;28;20049;-68
2022/03/14 07:27:55;;;;;;;5.60;3.65;;;9.30;99.90;;;;;;5065233;28;20075;-69
2022/03/14 07:30:22;;;;;;;5.88;4.35;;;9.30;99.90;;;;;;5064120;28;20040;-69
2022/03/14 07:32:49;;;;;;;6.15;4.43;;;9.30;99.90;;;;;;5063679;28;20057;-70
2022/03/14 07:35:17;;;;;;;6.13;4.20;;;9.30;99.90;;;;;;5062638;28;20181;-74
2022/03/14 07:37:45;;;;;;;5.32;4.10;;;9.30;99.90;;;;;;5051854;28;20052;-69
2022/03/14 07:40:13;;;;;;;6.40;3.88;;;9.30;99.90;;;;;;5068699;28;20063;-71
2022/03/14 07:42:42;;;;;;;5.47;4.10;;;9.40;99.90;;;;;;5071182;28;20044;-69
2022/03/14 07:45:12;;;;;;;6.22;4.07;;;9.40;99.90;;;;;;5063605;28;20407;-69
2022/03/14 07:47:39;;;;;;;5.57;4.45;;;9.40;99.90;;;;;;5055451;28;20045;-69
2022/03/14 07:50:08;;;;;;;5.97;4.40;;;9.40;99.90;;;;;;5055095;28;20056;-70
2022/03/14 07:52:36;;;;;;;7.68;5.10;;;9.40;99.90;;;;;;5053063;28;20131;-69
2022/03/14 07:55:03;;;;;;;5.13;3.83;;;9.40;99.90;;;;;;5054467;28;20045;-76
2022/03/14 07:57:31;;;;;;;5.07;3.88;;;9.40;99.90;;;;;;5057928;28;20045;-69
2022/03/14 07:59:59;;;;;;;5.88;4.40;;;9.40;99.90;;;;;;5065869;28;20076;-69
2022/03/14 08:02:27;;;;;;;5.78;4.40;;;9.40;99.90;;;;;;5067048;28;20045;-69
2022/03/14 08:04:54;;;;;;;5.22;4.10;;;9.40;99.90;;;;;;5065722;28;20044;-69
2022/03/14 08:07:21;;;;;;;5.20;4.00;;;9.50;99.90;;;;;;5060819;28;20512;-69
2022/03/14 08:09:49;;;;;;;6.15;4.38;;;9.50;99.90;;;;;;5054576;28;20045;-69
2022/03/14 08:12:16;;;;;;;7.97;4.10;;;9.50;99.90;;;;;;5055990;28;20072;-69
2022/03/14 08:14:43;;;;;;;4.78;3.72;;;9.60;99.90;;;;;;5051957;28;20056;-69
2022/03/14 08:17:10;;;;;;;5.35;4.20;;;9.60;99.90;;;;;;5054674;28;20060;-69
2022/03/14 08:19:38;;;;;;;6.38;4.63;;;9.60;99.90;;;;;;5052921;28;20057;-69
2022/03/14 08:22:05;;;;;;;6.38;4.43;;;9.60;99.90;;;;;;5052455;28;20053;-69
2022/03/14 08:24:33;;;;;;;6.70;4.57;;;9.60;99.90;;;;;;5054856;28;20049;-69
2022/03/14 08:27:01;;;;;;;6.57;4.18;;;9.60;99.90;;;;;;5055630;28;20135;-69
2022/03/14 08:29:28;;;;;;;4.93;3.97;;;9.60;99.90;;;;;;5058058;28;20052;-68
2022/03/14 08:31:55;;;;;;;6.60;4.65;;;9.60;99.90;;;;;;5052123;28;20080;-69
2022/03/14 08:34:22;;;;;;;5.68;4.18;;;9.80;99.90;;;;;;5052371;28;20551;-68
2022/03/14 08:36:50;;;;;;;6.10;4.25;;;9.80;99.90;;;;;;5058535;28;20045;-68
2022/03/14 08:39:17;;;;;;;6.35;4.20;;;9.80;99.90;;;;;;5059607;28;20504;-68
2022/03/14 08:41:44;;;;;;;5.65;4.30;;;9.80;99.90;;;;;;5062261;28;20049;-69
2022/03/14 08:44:12;;;;;;;7.18;4.18;;;9.70;99.90;;;;;;5064728;28;20049;-69
2022/03/14 08:46:39;;;;;;;6.35;4.63;;;9.80;99.90;;;;;;5058903;28;20045;-69
2022/03/14 08:49:06;;;;;;;6.03;4.43;;;9.80;99.90;;;;;;5053673;28;20052;-69
2022/03/14 08:51:33;;;;;;;6.25;4.70;;;9.80;99.90;;;;;;5054188;28;20138;-69
2022/03/14 08:54:01;;;;;;;7.63;4.30;;;9.80;99.90;;;;;;5060758;28;20518;-68
2022/03/14 08:56:28;;;;;;;5.90;4.47;;;9.80;99.90;;;;;;5069225;28;20048;-68
2022/03/14 08:58:55;;;;;;;5.90;4.65;;;9.80;99.90;;;;;;5062477;28;20053;-68
2022/03/14 09:01:22;;;;;;;5.75;4.40;;;9.80;99.90;;;;;;5063236;28;20444;-68
2022/03/14 09:03:48;;;;;;;6.20;4.78;;;9.90;99.90;;;;;;5052278;28;20061;-68
2022/03/14 09:06:17;;;;;;;6.15;4.68;;;9.90;99.90;;;;;;5073391;28;20071;-68
2022/03/14 09:08:44;;;;;;;7.10;5.20;;;9.90;99.90;;;;;;5071179;28;20132;-68
2022/03/14 09:11:13;;;;;;;7.22;5.05;;;9.90;99.90;;;;;;5067580;28;20052;-68
2022/03/14 09:13:40;;;;;;;6.25;4.40;;;9.90;99.90;;;;;;5068874;28;20466;-69
2022/03/14 09:16:08;;;;;;;6.72;4.50;;;9.90;99.90;;;;;;5064821;28;20049;-69
2022/03/14 09:18:36;;;;;;;6.82;4.78;;;10.00;99.90;;;;;;5055130;28;20045;-69
2022/03/14 09:21:03;;;;;;;6.55;5.05;;;10.00;99.90;;;;;;5056620;28;20049;-68
2022/03/14 09:23:30;;;;;;;7.57;4.88;;;10.00;99.90;;;;;;5055090;28;20110;-69
2022/03/14 09:25:59;;;;;;;6.45;4.95;;;10.00;99.90;;;;;;5053257;28;20123;-68
2022/03/14 09:28:27;;;;;;;7.20;4.97;;;10.00;99.90;;;;;;5052818;28;20045;-69
2022/03/14 09:30:55;;;;;;;7.45;5.57;;;10.00;99.90;;;;;;5052356;28;20053;-68
2022/03/14 09:33:22;;;;;;;6.93;5.30;;;10.00;99.90;;;;;;5051556;28;20056;-68
2022/03/14 09:35:49;;;;;;;7.03;5.50;;;10.00;99.90;;;;;;5053076;28;20045;-69
2022/03/14 09:38:18;;;;;;;7.38;5.40;;;10.00;99.90;;;;;;5050759;28;20049;-69
2022/03/14 09:40:46;;;;;;;7.32;5.43;;;10.00;99.90;;;;;;5060654;28;20054;-69
2022/03/14 09:43:16;;;;;;;6.90;5.30;;;10.00;99.90;;;;;;5054872;28;20132;-69
2022/03/14 09:45:46;;;;;;;8.68;5.57;;;10.00;99.90;;;;;;5053096;28;20118;-69
2022/03/14 09:48:15;;;;;;;6.70;5.20;;;10.00;99.90;;;;;;5068632;28;20403;-69
2022/03/14 09:50:45;;;;;;;7.32;5.88;;;10.00;99.90;;;;;;5069730;28;20064;-69
2022/03/14 09:53:14;;;;;;;8.27;6.50;;;10.00;99.90;;;;;;5050866;28;20052;-69
2022/03/14 09:55:43;;;;;;;8.25;6.38;;;10.00;99.90;;;;;;5050877;28;20126;-69
2022/03/14 09:58:11;;;;;;;9.32;7.15;;;10.00;99.90;;;;;;5072841;28;20389;-69
2022/03/14 10:00:38;;;;;;;11.57;7.97;;;9.90;99.90;;;;;;5067490;28;20488;-68
2022/03/14 10:03:07;;;;;;;11.20;8.80;;;9.90;99.90;;;;;;5055725;28;20115;-68
2022/03/14 10:05:34;;;;;;;12.93;9.60;;;9.80;99.90;;;;;;5050548;28;20052;-68
2022/03/14 10:08:01;;;;;;;18.00;11.70;;;9.80;99.90;;;;;;5051841;28;20049;-69
2022/03/14 10:10:28;;;;;;;16.38;11.10;;;9.70;99.90;;;;;;5052699;28;20079;-68
2022/03/14 10:12:57;;;;;;;21.23;13.52;;;9.60;99.90;;;;;;5050120;28;20318;-68
2022/03/14 10:15:25;;;;;;;21.65;13.77;;;9.40;99.90;;;;;;5057320;28;20080;-68
2022/03/14 10:17:53;;;;;;;21.20;15.15;;;9.30;99.90;;;;;;5054419;28;20064;-68
2022/03/14 10:20:24;;;;;;;20.38;13.52;;;9.30;99.90;;;;;;5053917;28;20048;-69
2022/03/14 10:22:51;;;;;;;21.00;13.82;;;9.40;99.90;;;;;;5056322;28;20571;-68
2022/03/14 10:25:30;;;;;;;20.13;13.07;;;9.40;99.90;;;;;;5115423;27;20118;-69
2022/03/14 10:27:57;;;;;;;18.27;12.07;;;9.40;99.90;;;;;;5086951;28;20079;-69
2022/03/14 10:30:29;;;;;;;17.98;11.70;;;9.50;99.90;;;;;;5069755;28;20453;-69
2022/03/14 10:33:10;;;;;;;18.60;11.75;;;9.50;99.90;;;;;;5086065;28;20059;-69
2022/03/14 10:35:39;;;;;;;16.63;11.30;;;9.60;99.90;;;;;;5069521;28;20052;-69
2022/03/14 10:38:07;;;;;;;15.25;9.50;;;9.70;99.90;;;;;;5077551;28;20052;-69
2022/03/14 10:40:38;;;;;;;19.60;9.45;;;9.60;99.90;;;;;;5088016;28;20044;-69
2022/03/14 10:43:07;;;;;;;14.57;9.38;;;9.70;99.90;;;;;;5087205;28;20441;-69
2022/03/14 10:45:35;;;;;;;17.13;10.10;;;9.70;99.90;;;;;;5090021;28;20093;-69
2022/03/14 10:48:02;;;;;;;17.20;10.02;;;9.80;99.90;;;;;;5085823;28;20052;-69
2022/03/14 10:50:31;;;;;;;15.48;8.68;;;9.80;99.90;;;;;;5093139;28;20517;-69
2022/03/14 10:53:07;;;;;;;15.13;9.57;;;9.90;99.90;;;;;;5087644;28;20052;-69
2022/03/14 10:55:38;;;;;;;14.98;8.30;;;9.90;99.90;;;;;;5081128;28;20052;-69
2022/03/14 10:58:12;;;;;;;13.90;9.32;;;10.00;99.90;;;;;;5108773;28;20118;-69
2022/03/14 11:00:46;;;;;;;15.85;7.68;;;10.00;99.90;;;;;;5073602;28;20377;-69
2022/03/14 11:03:24;;;;;;;14.88;7.95;;;9.90;99.90;;;;;;5071374;28;20048;-69
2022/03/14 11:05:52;;;;;;;15.75;8.52;;;10.00;99.90;;;;;;5086550;28;20407;-69
2022/03/14 11:08:30;;;;;;;17.00;8.45;;;9.90;99.90;;;;;;5069053;28;20536;-69
2022/03/14 11:10:59;;;;;;;18.75;7.88;;;9.90;99.90;;;;;;5087004;28;20419;-70
2022/03/14 11:13:27;;;;;;;16.97;8.60;;;9.90;99.90;;;;;;5070803;28;20385;-69
2022/03/14 11:15:56;;;;;;;16.15;8.50;;;10.10;99.90;;;;;;5078378;28;20076;-70
2022/03/14 11:18:24;;;;;;;12.77;7.32;;;10.00;99.90;;;;;;5094542;28;20047;-70
2022/03/14 11:20:52;;;;;;;18.98;8.55;;;10.10;99.90;;;;;;5072894;28;20048;-69
2022/03/14 11:23:21;;;;;;;14.05;6.97;;;10.10;99.90;;;;;;5086402;28;20079;-69
2022/03/14 11:25:49;;;;;;;12.63;7.15;;;10.10;99.90;;;;;;5086681;28;20048;-69
2022/03/14 11:28:20;;;;;;;17.92;7.60;;;10.10;99.90;;;;;;5070464;28;20098;-70
2022/03/14 11:30:55;;;;;;;16.58;7.47;;;10.20;99.90;;;;;;5069714;28;20418;-69
2022/03/14 11:33:22;;;;;;;17.75;7.25;;;10.20;99.90;;;;;;5069260;28;20086;-69
2022/03/14 11:35:50;;;;;;;12.50;7.45;;;10.30;99.90;;;;;;5061017;28;20457;-69
2022/03/14 11:38:18;;;;;;;15.15;7.38;;;10.30;99.90;;;;;;5072831;28;20044;-69
2022/03/14 11:40:45;;;;;;;17.05;8.20;;;10.20;99.90;;;;;;5073651;28;20063;-69
2022/03/14 11:43:13;;;;;;;13.40;8.05;;;10.30;99.90;;;;;;5070428;28;20060;-69
2022/03/14 11:45:42;;;;;;;17.50;7.93;;;10.30;99.90;;;;;;5062312;28;20040;-69
2022/03/14 11:48:09;;;;;;;13.68;6.85;;;10.30;99.90;;;;;;5084208;28;20056;-69
2022/03/14 11:50:47;;;;;;;13.35;6.93;;;10.40;99.90;;;;;;5073552;28;20052;-69
2022/03/14 11:53:23;;;;;;;12.07;7.40;;;10.40;99.90;;;;;;5092788;28;20051;-69
2022/03/14 11:55:52;;;;;;;13.50;6.28;;;10.40;99.90;;;;;;5084959;28;20064;-69
2022/03/14 11:58:37;;;;;;;11.48;6.32;;;10.50;99.90;;;;;;5059825;28;20050;-69
2022/03/14 12:01:17;;;;;;;17.45;6.75;;;10.60;99.90;;;;;;5061592;28;20058;-69
2022/03/14 12:03:49;;;;;;;12.98;6.53;;;10.60;99.90;;;;;;5077849;28;20048;-69
2022/03/14 12:06:17;;;;;;;14.52;6.15;;;10.50;99.90;;;;;;5072328;28;20052;-69
2022/03/14 12:08:54;;;;;;;12.05;5.97;;;10.50;99.90;;;;;;5063997;28;20056;-69
2022/03/14 12:11:37;;;;;;;10.93;6.22;;;10.50;99.90;;;;;;5073192;28;20060;-68
2022/03/14 12:14:05;;;;;;;11.35;7.03;;;10.50;99.90;;;;;;5058337;28;20094;-70
2022/03/14 12:16:39;;;;;;;12.35;7.30;;;10.60;99.90;;;;;;5059418;28;20060;-70
2022/03/14 12:19:31;;;;;;;18.55;8.52;;;10.50;99.90;;;;;;5072254;28;20567;-70
2022/03/14 12:22:00;;;;;;;15.23;8.20;;;10.50;99.90;;;;;;5054900;28;20053;-69
2022/03/14 12:24:48;;;;;;;15.63;7.93;;;10.40;99.90;;;;;;5069861;28;20492;-69
2022/03/14 12:27:17;;;;;;;17.63;8.23;;;10.50;99.90;;;;;;5057696;28;20053;-68
2022/03/14 12:29:44;;;;;;;14.93;8.80;;;10.50;99.90;;;;;;5052916;28;20057;-69
2022/03/14 12:32:33;;;;;;;19.17;8.82;;;10.50;99.90;;;;;;5056139;28;20048;-68
2022/03/14 12:35:02;;;;;;;18.23;9.48;;;10.60;99.90;;;;;;5056993;28;20443;-68
2022/03/14 12:37:42;;;;;;;20.08;10.07;;;10.70;99.90;;;;;;5056066;28;20098;-67
2022/03/14 12:40:14;;;;;;;16.77;9.73;;;10.80;99.90;;;;;;5059554;28;20130;-67
2022/03/14 12:42:43;;;;;;;16.85;8.77;;;11.00;99.90;;;;;;5053723;28;20075;-68
2022/03/14 12:45:22;;;;;;;21.20;10.05;;;11.10;99.90;;;;;;5056293;28;20052;-68
2022/03/14 12:47:57;;;;;;;17.77;10.13;;;11.30;99.90;;;;;;5050762;28;20464;-68
2022/03/14 12:51:02;;;;;;;20.13;10.60;;;11.30;99.90;;;;;;5058855;28;20049;-69
2022/03/14 12:53:44;;;;;;;18.15;10.40;;;11.30;99.90;;;;;;5051346;28;20055;-68
2022/03/14 12:56:20;;;;;;;22.08;9.85;;;11.50;99.90;;;;;;5049960;28;20136;-68